Omaha Millard, NE

4:29 PM CDT on April 23, 2018 (GMT -0500)
Millard Municipal

Weather History for KMLE - March, 2013

Change the Weather History Date:

Sunday, March 3, 2013

  Actual Average (KOFF) Record (KOFF)
Temperature  
Mean Temperature 32 °F -  
Max Temperature 39 °F 37 °F 66 °F (2018)
Min Temperature 26 °F 21 °F -5 °F (2014)
Degree Days  
Heating Degree Days 32    
Moisture  
Dew Point 31 °F    
Average Humidity 93    
Maximum Humidity 100    
Minimum Humidity 82    
Precipitation  
Precipitation 0.00 in - - ()
Sea Level Pressure  
Sea Level Pressure 29.89 in    
Wind  
Wind Speed 8 mph (SE)    
Max Wind Speed 16 mph    
Max Gust Speed 25 mph    
Visibility 9 miles    
Events      
Averages and records for this station are not official NWS values.
T = Trace of Precipitation, MM = Missing Value Source: NWS Daily Summary

Daily Weather History Graph

Daily Weather History Graph

Search for Another Location

Airport or City:

Astronomy

Mar. 03, 2013 Rise Set
Actual Time 6:55 AM CST 6:18 PM CST
Civil Twilight 6:27 AM CST 6:45 PM CST
Nautical Twilight 5:55 AM CST 7:17 PM CST
Astronomical Twilight 5:23 AM CST 7:49 PM CST
Moon 12:01 AM CST (3/3) 10:07 AM CST (3/3)
Length of Visible Light 12h 17m
Length of Day
11h 22m
Waning Gibbous, 63% of the Moon is Illuminated
Mar 3
Waning Gibbous
Mar 4
Last Quarter
Mar 11
New
Mar 19
First Quarter
Mar 27
Full

Hourly Weather History & Observations

Time (CST) Temp. Windchill Dew Point Humidity Pressure Visibility Wind Dir Wind Speed Gust Speed Precip Events Conditions
12:15 AM 28.4 °F 23.3 °F 28.4 °F 100% 30.09 in 7.0 mi SE 4.6 mph - N/A   Clear
12:35 AM 28.4 °F 22.2 °F 28.4 °F 100% 30.08 in 7.0 mi SE 5.8 mph - N/A   Clear
12:55 AM 28.2 °F 22.0 °F 28.2 °F 100% 30.07 in 7.0 mi SE 5.8 mph - N/A   Clear
1:15 AM 28.2 °F 21.0 °F 28.2 °F 100% 30.07 in 7.0 mi SE 6.9 mph - N/A   Clear
1:35 AM 27.9 °F 20.6 °F 27.9 °F 100% 30.06 in 7.0 mi SE 6.9 mph - N/A   Clear
1:55 AM 27.5 °F 20.2 °F 27.5 °F 100% 30.06 in 7.0 mi SE 6.9 mph - N/A   Clear
2:15 AM 27.5 °F 20.2 °F 27.5 °F 100% 30.05 in 7.0 mi SE 6.9 mph - N/A   Clear
2:35 AM 27.5 °F 20.2 °F 27.5 °F 100% 30.03 in 7.0 mi SE 6.9 mph - N/A   Clear
2:55 AM 27.5 °F 20.2 °F 27.5 °F 100% 30.03 in 7.0 mi SE 6.9 mph - N/A   Clear
3:15 AM 27.1 °F 19.7 °F 27.1 °F 100% 30.02 in 7.0 mi SE 6.9 mph - N/A   Clear
3:35 AM 27.5 °F 21.1 °F 27.5 °F 100% 30.01 in 7.0 mi SE 5.8 mph - N/A   Clear
3:55 AM 27.1 °F 19.7 °F 27.1 °F 100% 30.00 in 7.0 mi SE 6.9 mph - N/A   Clear
4:15 AM 27.1 °F 19.7 °F 27.1 °F 100% 29.99 in 7.0 mi SE 6.9 mph - N/A   Clear
4:35 AM 27.1 °F 19.7 °F 27.1 °F 100% 29.99 in 7.0 mi SE 6.9 mph - N/A   Clear
4:55 AM 27.0 °F 21.6 °F 27.0 °F 100% 29.99 in 7.0 mi SE 4.6 mph - N/A   Clear
5:15 AM 27.3 °F 22.0 °F 27.3 °F 100% 29.99 in 10.0 mi SE 4.6 mph - N/A   Clear
5:35 AM 27.1 °F 20.7 °F 27.1 °F 100% 29.98 in 7.0 mi SE 5.8 mph - N/A   Clear
5:55 AM 27.1 °F 19.7 °F 27.1 °F 100% 29.98 in 7.0 mi SE 6.9 mph - N/A   Clear
6:15 AM 27.1 °F 18.9 °F 27.1 °F 100% 29.97 in 7.0 mi SE 8.1 mph - N/A   Clear
6:35 AM 26.6 °F 18.2 °F 26.6 °F 100% 29.97 in 7.0 mi SE 8.1 mph - N/A   Clear
6:55 AM 27.1 °F 20.7 °F 27.1 °F 100% 29.98 in 7.0 mi SE 5.8 mph - N/A   Clear
7:15 AM 27.3 °F 20.9 °F 27.3 °F 100% 29.98 in 7.0 mi ESE 5.8 mph - N/A   Clear
7:35 AM 27.5 °F 21.1 °F 27.5 °F 100% 29.97 in 7.0 mi ESE 5.8 mph - N/A   Clear
7:55 AM 28.0 °F 19.3 °F 28.0 °F 100% 29.97 in 7.0 mi SE 9.2 mph - N/A   Clear
8:15 AM 28.2 °F 20.2 °F 28.2 °F 100% 29.96 in 7.0 mi SE 8.1 mph - N/A   Clear
8:35 AM 29.3 °F 20.2 °F 29.3 °F 100% 29.96 in 10.0 mi SE 10.4 mph - N/A   Clear
8:55 AM 30.6 °F 21.8 °F 30.0 °F 98% 29.95 in 7.0 mi SE 10.4 mph - N/A   Clear
9:15 AM 31.8 °F 23.9 °F 30.7 °F 96% 29.95 in 10.0 mi SE 9.2 mph - N/A   Clear
9:35 AM 32.2 °F 23.8 °F 31.1 °F 96% 29.94 in 10.0 mi SE 10.4 mph - N/A   Clear
9:55 AM 33.1 °F 24.4 °F 31.6 °F 94% 29.92 in 10.0 mi SE 11.5 mph - N/A   Clear
10:15 AM 33.8 °F 25.3 °F 32.0 °F 93% 29.92 in 10.0 mi SE 11.5 mph - N/A   Clear
10:35 AM 34.7 °F 27.5 °F 32.0 °F 90% 29.92 in 10.0 mi ESE 9.2 mph - N/A   Clear
10:55 AM 35.2 °F 27.6 °F 32.2 °F 89% 29.91 in 10.0 mi SE 10.4 mph - N/A   Clear
11:15 AM 35.8 °F 27.8 °F 32.5 °F 88% 29.91 in 10.0 mi SE 11.5 mph 16.1 mph N/A   Clear
11:35 AM 35.8 °F 27.8 °F 32.4 °F 87% 29.90 in 10.0 mi SE 11.5 mph - N/A   Scattered Clouds
11:55 AM 36.3 °F 29.5 °F 32.9 °F 87% 29.89 in 10.0 mi ESE 9.2 mph 17.3 mph N/A   Scattered Clouds
12:15 PM 37.2 °F 30.0 °F 33.3 °F 86% 29.87 in 10.0 mi ESE 10.4 mph - N/A   Scattered Clouds
12:35 PM 37.9 °F 30.0 °F 33.8 °F 85% 29.87 in 10.0 mi SE 12.7 mph - N/A   Scattered Clouds
12:55 PM 39.0 °F 31.8 °F 34.0 °F 82% 29.86 in 10.0 mi ESE 11.5 mph - N/A   Scattered Clouds
1:15 PM 39.2 °F 31.6 °F 34.2 °F 82% 29.84 in 10.0 mi SE 12.7 mph - N/A   Scattered Clouds
1:35 PM 39.2 °F 32.0 °F 34.2 °F 82% 29.84 in 10.0 mi SE 11.5 mph - N/A   Mostly Cloudy
1:55 PM 39.6 °F 34.0 °F 34.7 °F 83% 29.83 in 10.0 mi ESE 8.1 mph - N/A   Scattered Clouds
2:15 PM 39.4 °F 32.7 °F 34.9 °F 84% 29.81 in 10.0 mi ESE 10.4 mph 16.1 mph N/A   Scattered Clouds
2:35 PM 39.7 °F 33.2 °F 35.6 °F 85% 29.82 in 10.0 mi ESE 10.4 mph - N/A   Scattered Clouds
2:55 PM 39.2 °F 31.2 °F 34.9 °F 84% 29.81 in 10.0 mi ESE 13.8 mph 18.4 mph N/A   Scattered Clouds
3:15 PM 39.4 °F 32.3 °F 35.1 °F 84% 29.80 in 10.0 mi ESE 11.5 mph 17.3 mph N/A   Scattered Clouds
3:35 PM 39.2 °F 33.0 °F 34.9 °F 84% 29.81 in 10.0 mi ESE 9.2 mph 17.3 mph N/A   Scattered Clouds
3:55 PM 39.2 °F 31.6 °F 34.7 °F 84% 29.80 in 10.0 mi ESE 12.7 mph 18.4 mph N/A   Scattered Clouds
4:15 PM 39.0 °F 30.3 °F 34.5 °F 84% 29.79 in 10.0 mi ESE 16.1 mph 21.9 mph N/A   Mostly Cloudy
4:35 PM 38.3 °F 30.1 °F 34.0 °F 84% 29.80 in 10.0 mi ESE 13.8 mph 20.7 mph N/A   Overcast
4:55 PM 37.9 °F 29.2 °F 33.8 °F 85% 29.78 in 10.0 mi ESE 15.0 mph 19.6 mph N/A   Mostly Cloudy
5:15 PM 37.8 °F 29.0 °F 33.8 °F 86% 29.76 in 10.0 mi ESE 15.0 mph 19.6 mph N/A   Mostly Cloudy
5:35 PM 37.4 °F 30.3 °F 33.8 °F 87% 29.75 in 10.0 mi ESE 10.4 mph 20.7 mph N/A   Mostly Cloudy
5:55 PM 36.7 °F 27.2 °F 33.3 °F 87% 29.77 in 10.0 mi SE 16.1 mph 20.7 mph N/A   Mostly Cloudy
6:35 PM 36.0 °F 26.3 °F 32.9 °F 89% 29.78 in 10.0 mi ESE 16.1 mph - N/A   Mostly Cloudy
6:55 PM 35.8 °F 27.3 °F 32.9 °F 89% 29.78 in 10.0 mi ESE 12.7 mph 19.6 mph N/A   Mostly Cloudy
7:15 PM 35.6 °F 28.0 °F 32.9 °F 90% 29.78 in 10.0 mi ESE 10.4 mph 18.4 mph N/A   Overcast
7:35 PM 35.6 °F 27.1 °F 32.5 °F 89% 29.77 in 10.0 mi ESE 12.7 mph 25.3 mph N/A   Overcast
7:55 PM 35.4 °F 27.3 °F 32.5 °F 89% 29.76 in 10.0 mi SE 11.5 mph - N/A   Overcast
8:15 PM 35.1 °F 30.1 °F 32.9 °F 92% 29.81 in 10.0 mi ESE 5.8 mph - N/A   Overcast
8:35 PM 34.9 °F 25.7 °F 32.9 °F 92% 29.79 in 10.0 mi SE 13.8 mph - N/A   Mostly Cloudy
8:55 PM 34.7 °F 25.9 °F 32.5 °F 92% 29.77 in 10.0 mi ESE 12.7 mph 18.4 mph N/A   Mostly Cloudy
9:15 PM 34.7 °F 25.9 °F 32.4 °F 91% 29.76 in 10.0 mi SE 12.7 mph 20.7 mph N/A   Overcast
9:35 PM 34.3 °F 25.5 °F 32.2 °F 92% 29.76 in 10.0 mi ESE 12.7 mph 20.7 mph N/A   Overcast
9:55 PM 34.2 °F 25.2 °F 32.0 °F 92% 29.76 in 10.0 mi ESE 12.7 mph 16.1 mph N/A   Overcast
10:15 PM 34.0 °F 26.0 °F 32.0 °F 92% 29.76 in 10.0 mi ESE 10.4 mph - N/A   Overcast
10:35 PM 34.2 °F 26.2 °F 32.0 °F 92% 29.77 in 10.0 mi ESE 10.4 mph - N/A   Overcast
10:55 PM 34.0 °F 26.0 °F 31.8 °F 92% 29.75 in 10.0 mi SE 10.4 mph - N/A   Mostly Cloudy
11:15 PM 33.8 °F 25.8 °F 31.1 °F 90% 29.74 in 10.0 mi ESE 10.4 mph - N/A   Scattered Clouds
11:35 PM 33.1 °F 25.5 °F 31.1 °F 92% 29.74 in 10.0 mi ESE 9.2 mph - N/A   Clear
11:55 PM 32.9 °F 25.3 °F 31.1 °F 93% 29.72 in 10.0 mi ESE 9.2 mph - N/A   Clear